Time;durP1;ratioP1;P1;durP2;ratioP2;P2;SDS_P1;SDS_P2;PMS_P1;PMS_P2;Temp;Humidity;BMP_temperature;BMP_pressure;BME280_temperature;BME280_humidity;BME280_pressure;Samples;Min_cycle;Max_cycle;Signal;HPM_P1;HPM_P2
2021/03/23 00:00:56;;;;;;;1.98;1.20;;;17.70;56.70;;;;;;10489926;28;20033;-59
2021/03/23 00:05:58;;;;;;;2.00;1.13;;;17.70;56.60;;;;;;10476992;28;20504;-59
2021/03/23 00:11:07;;;;;;;1.98;1.25;;;17.70;56.70;;;;;;10470167;28;20107;-59
2021/03/23 00:16:09;;;;;;;1.70;1.33;;;17.70;56.50;;;;;;10503105;28;20020;-59
2021/03/23 00:21:11;;;;;;;1.30;0.90;;;17.70;56.50;;;;;;10484103;28;20397;-59
2021/03/23 00:26:13;;;;;;;2.67;1.30;;;17.70;56.50;;;;;;10461170;28;20041;-59
2021/03/23 00:31:20;;;;;;;2.95;1.13;;;17.70;56.50;;;;;;10476321;28;20029;-59
2021/03/23 00:36:25;;;;;;;4.13;1.15;;;17.70;56.40;;;;;;10471146;28;20443;-59
2021/03/23 00:41:26;;;;;;;1.70;1.20;;;17.80;56.40;;;;;;10459825;28;20025;-59
2021/03/23 00:46:26;;;;;;;2.38;1.35;;;17.70;56.40;;;;;;10494485;28;20119;-59
2021/03/23 00:51:27;;;;;;;2.33;1.30;;;17.80;56.40;;;;;;10480720;28;20075;-59
2021/03/23 00:56:28;;;;;;;2.22;1.40;;;17.80;56.30;;;;;;10460415;28;20078;-59
2021/03/23 01:01:29;;;;;;;2.05;1.20;;;17.80;56.20;;;;;;10470289;28;20032;-59
2021/03/23 01:06:29;;;;;;;2.50;1.48;;;17.80;56.00;;;;;;10470452;28;20498;-59
2021/03/23 01:11:30;;;;;;;2.40;1.10;;;17.80;55.90;;;;;;10471748;28;20064;-59
2021/03/23 01:16:31;;;;;;;1.88;1.05;;;17.80;55.90;;;;;;10500648;28;20044;-59
2021/03/23 01:21:32;;;;;;;1.27;0.90;;;17.80;55.90;;;;;;10492427;28;20050;-59
2021/03/23 01:26:33;;;;;;;1.67;1.02;;;17.80;55.90;;;;;;10488930;28;20036;-59
2021/03/23 01:31:34;;;;;;;1.98;1.23;;;17.80;55.90;;;;;;10480349;28;20033;-60
2021/03/23 01:36:34;;;;;;;2.00;1.25;;;17.80;55.90;;;;;;10461477;28;20031;-59
2021/03/23 01:41:35;;;;;;;2.35;1.50;;;17.80;55.90;;;;;;10464681;28;20032;-59
2021/03/23 01:46:48;;;;;;;2.72;1.52;;;17.80;55.80;;;;;;10467566;28;20127;-59
2021/03/23 01:51:54;;;;;;;2.45;1.60;;;17.80;55.80;;;;;;10467732;28;20020;-59
2021/03/23 01:57:01;;;;;;;1.92;1.13;;;17.80;55.90;;;;;;10497910;28;20101;-59
2021/03/23 02:02:03;;;;;;;2.10;1.30;;;17.80;55.80;;;;;;10467621;28;20507;-59
2021/03/23 02:07:04;;;;;;;2.40;1.13;;;17.80;55.80;;;;;;10487116;28;20040;-59
2021/03/23 02:12:07;;;;;;;2.63;1.25;;;17.80;55.90;;;;;;10470590;28;20374;-59
2021/03/23 02:17:32;;;;;;;2.35;1.08;;;17.80;55.80;;;;;;10455682;28;20497;-59
2021/03/23 02:22:41;;;;;;;1.98;1.10;;;17.80;55.80;;;;;;10479951;28;20102;-59
2021/03/23 02:27:41;;;;;;;1.57;1.10;;;17.80;55.80;;;;;;10496643;28;20043;-59
2021/03/23 02:32:42;;;;;;;2.28;1.40;;;17.80;55.80;;;;;;10467154;28;20016;-59
2021/03/23 02:37:43;;;;;;;2.35;1.17;;;17.80;55.80;;;;;;10456128;28;20025;-59
2021/03/23 02:42:43;;;;;;;2.03;1.25;;;17.70;55.80;;;;;;10485350;28;20120;-59
2021/03/23 02:47:44;;;;;;;2.05;1.38;;;17.80;55.80;;;;;;10455221;28;20040;-60
2021/03/23 02:52:45;;;;;;;1.92;1.40;;;17.80;55.80;;;;;;10487988;28;20036;-59
2021/03/23 02:57:46;;;;;;;2.55;1.30;;;17.80;55.80;;;;;;10497361;28;20036;-59
2021/03/23 03:02:47;;;;;;;2.42;1.55;;;17.80;55.70;;;;;;10461980;28;20053;-59
2021/03/23 03:07:47;;;;;;;2.53;1.52;;;17.80;55.60;;;;;;10454308;28;20037;-59
2021/03/23 03:12:48;;;;;;;1.88;1.20;;;17.80;55.60;;;;;;10479124;28;20024;-59
2021/03/23 03:17:49;;;;;;;2.40;1.55;;;17.80;55.60;;;;;;10497049;28;20067;-59
2021/03/23 03:22:50;;;;;;;2.05;1.20;;;17.80;55.60;;;;;;10462823;28;20477;-59
2021/03/23 03:27:51;;;;;;;2.22;1.15;;;17.80;55.70;;;;;;10454854;28;20477;-59
2021/03/23 03:32:53;;;;;;;1.73;1.25;;;17.80;55.70;;;;;;10481644;28;20036;-59
2021/03/23 03:37:55;;;;;;;2.65;1.70;;;17.80;55.60;;;;;;10454832;28;20040;-59
2021/03/23 03:42:56;;;;;;;3.35;1.98;;;17.80;55.70;;;;;;10458822;28;20085;-59
2021/03/23 03:47:57;;;;;;;3.63;1.85;;;17.80;55.70;;;;;;10495833;28;20054;-59
2021/03/23 03:52:59;;;;;;;2.50;1.67;;;17.80;55.60;;;;;;10481698;28;20021;-60
2021/03/23 03:57:59;;;;;;;2.97;1.45;;;17.80;55.60;;;;;;10473969;28;20103;-59
2021/03/23 04:03:03;;;;;;;2.70;1.50;;;17.80;55.60;;;;;;10475233;28;20518;-59
2021/03/23 04:08:06;;;;;;;3.08;1.50;;;17.80;55.60;;;;;;10492302;28;20495;-59
2021/03/23 04:13:07;;;;;;;3.13;1.70;;;17.80;55.60;;;;;;10462139;28;20031;-59
2021/03/23 04:18:11;;;;;;;3.25;1.58;;;17.80;55.60;;;;;;10501077;28;20529;-59
2021/03/23 04:23:32;;;;;;;2.50;1.40;;;17.80;55.60;;;;;;10466361;28;20140;-59
2021/03/23 04:28:33;;;;;;;3.15;1.52;;;17.80;55.50;;;;;;10493220;28;20029;-59
2021/03/23 04:33:35;;;;;;;3.17;1.90;;;17.80;55.40;;;;;;10464490;28;20036;-59
2021/03/23 04:38:39;;;;;;;2.70;1.88;;;17.80;55.30;;;;;;10461044;28;20036;-59
2021/03/23 04:43:45;;;;;;;3.20;1.88;;;17.80;55.20;;;;;;10491339;28;20465;-59
2021/03/23 04:48:45;;;;;;;3.97;1.98;;;17.80;55.30;;;;;;10498918;28;20553;-59
2021/03/23 04:53:46;;;;;;;3.08;2.05;;;17.80;55.20;;;;;;10460801;28;20079;-59
2021/03/23 04:58:47;;;;;;;3.33;1.75;;;17.80;55.20;;;;;;10460229;28;20067;-59
2021/03/23 05:03:57;;;;;;;2.45;1.73;;;17.80;55.20;;;;;;10488135;28;20036;-58
2021/03/23 05:08:58;;;;;;;2.95;2.10;;;17.80;55.10;;;;;;10500497;28;20028;-59
2021/03/23 05:14:00;;;;;;;3.10;1.80;;;17.80;55.20;;;;;;10459737;28;20040;-59
2021/03/23 05:19:01;;;;;;;3.17;2.30;;;17.80;55.20;;;;;;10459438;28;20083;-59
2021/03/23 05:24:03;;;;;;;3.13;1.95;;;17.80;55.00;;;;;;10495211;28;20048;-59
2021/03/23 05:29:04;;;;;;;2.40;1.85;;;17.80;55.00;;;;;;10494733;28;20028;-59
2021/03/23 05:34:05;;;;;;;3.88;2.15;;;17.80;55.00;;;;;;10476488;28;20028;-59
2021/03/23 05:39:05;;;;;;;2.95;2.03;;;17.80;55.00;;;;;;10476196;28;20029;-59
2021/03/23 05:44:33;;;;;;;3.08;2.05;;;17.80;55.00;;;;;;10456764;28;20028;-58
2021/03/23 05:49:40;;;;;;;9.15;2.70;;;17.80;55.20;;;;;;10457328;28;20037;-57
2021/03/23 05:54:58;;;;;;;7.53;2.63;;;17.80;56.20;;;;;;10455674;28;20025;-58
2021/03/23 06:00:17;;;;;;;6.80;2.50;;;17.80;56.50;;;;;;10453899;28;20529;-59
2021/03/23 06:05:46;;;;;;;6.77;2.77;;;17.80;57.00;;;;;;10456371;28;20037;-58
2021/03/23 06:10:47;;;;;;;4.13;3.00;;;17.80;57.40;;;;;;10464246;28;20283;-58
2021/03/23 06:16:14;;;;;;;5.10;3.13;;;17.90;57.60;;;;;;10494884;28;20047;-57
2021/03/23 06:22:02;;;;;;;7.85;2.80;;;17.90;57.90;;;;;;10489943;28;20055;-57
2021/03/23 06:27:19;;;;;;;10.52;3.28;;;17.90;57.20;;;;;;10471500;28;20037;-56
2021/03/23 06:32:51;;;;;;;11.32;3.55;;;17.80;57.10;;;;;;10473386;28;20021;-56
2021/03/23 06:37:52;;;;;;;6.40;3.22;;;17.80;57.60;;;;;;10473882;28;20459;-57
2021/03/23 06:42:55;;;;;;;7.05;3.35;;;17.80;56.90;;;;;;10462388;28;20116;-56
2021/03/23 06:48:20;;;;;;;9.82;3.10;;;17.80;56.70;;;;;;10459136;28;20037;-57
2021/03/23 06:53:22;;;;;;;7.88;3.65;;;17.80;56.40;;;;;;10452218;28;20028;-56
2021/03/23 06:58:34;;;;;;;8.63;3.50;;;17.80;56.30;;;;;;10453771;28;20067;-57
2021/03/23 07:03:36;;;;;;;9.27;4.22;;;17.80;56.30;;;;;;10456172;28;20037;-57
2021/03/23 07:08:36;;;;;;;7.78;3.65;;;17.80;56.20;;;;;;10455687;28;20036;-57
2021/03/23 07:13:41;;;;;;;8.25;3.47;;;17.80;56.30;;;;;;10444344;28;20056;-57
2021/03/23 07:18:46;;;;;;;7.10;3.83;;;17.80;56.30;;;;;;10447644;28;20511;-57
2021/03/23 07:23:46;;;;;;;7.00;4.15;;;17.80;56.30;;;;;;10438015;28;20037;-57
2021/03/23 07:28:47;;;;;;;6.50;3.97;;;17.80;56.30;;;;;;10450063;28;20056;-57
2021/03/23 07:34:10;;;;;;;7.32;4.47;;;17.80;56.50;;;;;;10455234;28;20082;-57
2021/03/23 07:39:28;;;;;;;7.45;5.20;;;17.80;56.50;;;;;;10451477;28;20036;-58
2021/03/23 07:44:39;;;;;;;8.18;4.72;;;17.70;57.10;;;;;;10454738;28;20038;-58
2021/03/23 07:49:45;;;;;;;7.53;5.13;;;17.70;57.20;;;;;;10430715;28;20028;-58
2021/03/23 07:54:46;;;;;;;9.98;5.68;;;17.70;57.30;;;;;;10461365;28;20064;-58
2021/03/23 07:59:56;;;;;;;8.43;5.30;;;17.70;57.10;;;;;;10460991;28;20044;-58
2021/03/23 08:05:23;;;;;;;10.88;6.53;;;17.70;56.80;;;;;;10460375;28;20040;-57
2021/03/23 08:10:44;;;;;;;8.57;5.88;;;17.70;56.60;;;;;;10467213;28;20086;-57
2021/03/23 08:16:21;;;;;;;9.07;4.82;;;17.70;56.60;;;;;;10451980;28;20040;-58
2021/03/23 08:22:10;;;;;;;7.90;5.10;;;17.60;56.60;;;;;;10452130;28;20072;-57
2021/03/23 08:27:34;;;;;;;7.72;5.13;;;17.60;56.60;;;;;;10452690;28;20061;-57
2021/03/23 08:32:54;;;;;;;9.25;4.85;;;17.60;56.60;;;;;;10463586;28;20053;-57
2021/03/23 08:38:20;;;;;;;7.88;4.68;;;17.70;56.60;;;;;;10452217;28;20036;-57
2021/03/23 08:43:41;;;;;;;8.05;5.90;;;17.70;56.50;;;;;;10451448;28;20094;-57
2021/03/23 08:48:44;;;;;;;9.05;5.38;;;17.70;56.50;;;;;;10451908;28;20113;-57
2021/03/23 08:53:54;;;;;;;7.57;5.03;;;17.70;56.50;;;;;;10479086;28;20496;-58
2021/03/23 08:58:55;;;;;;;8.80;4.70;;;17.70;56.40;;;;;;10471418;28;20523;-57
2021/03/23 09:04:04;;;;;;;8.55;4.65;;;17.70;56.40;;;;;;10464380;28;20111;-57
2021/03/23 09:09:29;;;;;;;10.10;5.80;;;17.70;56.40;;;;;;10440719;28;20386;-58
2021/03/23 09:14:52;;;;;;;8.20;4.43;;;17.70;56.40;;;;;;10449574;28;20027;-58
2021/03/23 09:19:56;;;;;;;8.80;4.72;;;17.70;56.40;;;;;;10449775;28;20135;-57
2021/03/23 09:26:00;;;;;;;6.68;4.75;;;17.70;56.40;;;;;;10472609;28;20041;-57
2021/03/23 09:31:48;;;;;;;7.57;4.57;;;17.70;56.40;;;;;;10440265;28;20472;-57
2021/03/23 09:36:50;;;;;;;9.55;4.85;;;17.70;56.50;;;;;;10466621;28;20045;-57
2021/03/23 09:42:11;;;;;;;7.65;4.72;;;17.70;56.70;;;;;;10474781;28;20087;-57
2021/03/23 09:48:01;;;;;;;7.88;5.22;;;17.70;56.50;;;;;;10478913;28;20040;-57
2021/03/23 09:53:22;;;;;;;8.13;4.30;;;17.70;56.50;;;;;;10416436;28;20144;-57
2021/03/23 09:58:26;;;;;;;5.43;3.97;;;17.70;56.50;;;;;;10450855;28;20477;-57
2021/03/23 10:03:35;;;;;;;7.65;4.85;;;17.70;56.50;;;;;;10471939;28;20437;-57
2021/03/23 10:08:36;;;;;;;7.22;4.88;;;17.70;56.50;;;;;;10450368;28;20069;-57
2021/03/23 10:13:43;;;;;;;6.60;4.90;;;17.70;56.50;;;;;;10448177;28;20745;-57
2021/03/23 10:18:43;;;;;;;6.80;4.22;;;17.70;56.60;;;;;;10466314;28;20481;-57
2021/03/23 10:23:52;;;;;;;6.30;4.50;;;17.60;56.70;;;;;;10484927;28;20105;-57
2021/03/23 10:28:55;;;;;;;7.57;4.90;;;17.70;56.70;;;;;;10489691;28;20163;-57
2021/03/23 10:34:18;;;;;;;5.40;4.03;;;17.70;56.70;;;;;;10479303;28;20076;-57
2021/03/23 10:39:43;;;;;;;7.03;4.88;;;17.60;56.70;;;;;;10470721;28;20765;-57
2021/03/23 10:44:45;;;;;;;7.50;5.28;;;17.70;56.60;;;;;;10462921;28;20037;-57
2021/03/23 10:49:46;;;;;;;6.10;4.78;;;17.60;56.60;;;;;;10448893;28;20588;-57
2021/03/23 10:54:47;;;;;;;6.68;5.10;;;17.70;56.70;;;;;;10438238;28;20112;-58
2021/03/23 10:59:47;;;;;;;6.45;5.10;;;17.70;56.60;;;;;;10447440;28;20457;-57
2021/03/23 11:05:16;;;;;;;6.82;4.18;;;17.70;56.70;;;;;;10465327;28;20036;-56
2021/03/23 11:10:20;;;;;;;6.43;4.63;;;17.70;56.60;;;;;;10448240;28;20375;-57
2021/03/23 11:15:21;;;;;;;6.63;4.55;;;17.70;56.60;;;;;;10447904;28;20040;-56
2021/03/23 11:20:40;;;;;;;6.32;4.80;;;17.70;56.70;;;;;;10447920;28;20045;-58
2021/03/23 11:25:40;;;;;;;8.90;5.55;;;17.70;56.70;;;;;;10452261;28;20087;-57
2021/03/23 11:30:41;;;;;;;7.78;5.32;;;17.70;56.70;;;;;;10457162;28;20116;-57
2021/03/23 11:35:47;;;;;;;5.60;4.63;;;17.60;56.70;;;;;;10464508;28;20135;-57
2021/03/23 11:40:49;;;;;;;8.18;5.63;;;17.70;56.70;;;;;;10464163;28;20037;-57
2021/03/23 11:45:53;;;;;;;7.07;5.18;;;17.70;56.80;;;;;;10454512;28;20622;-58
2021/03/23 11:50:54;;;;;;;6.40;4.72;;;17.70;56.80;;;;;;10456753;28;20094;-57
2021/03/23 11:55:55;;;;;;;7.93;5.28;;;17.60;57.00;;;;;;10461134;28;20088;-58
2021/03/23 12:00:56;;;;;;;9.73;5.95;;;17.60;57.40;;;;;;10462090;28;20040;-56
2021/03/23 12:05:57;;;;;;;14.48;7.15;;;17.60;57.20;;;;;;10468662;28;20081;-58
2021/03/23 12:11:24;;;;;;;8.27;5.10;;;17.60;57.20;;;;;;10458513;28;20136;-57
2021/03/23 12:17:10;;;;;;;10.27;6.03;;;17.60;57.20;;;;;;10483811;28;20062;-58
2021/03/23 12:22:15;;;;;;;9.48;5.63;;;17.60;57.20;;;;;;10480835;28;20064;-58
2021/03/23 12:27:16;;;;;;;9.32;5.70;;;17.50;57.20;;;;;;10453112;28;20044;-58
2021/03/23 12:32:18;;;;;;;7.97;6.03;;;17.60;57.10;;;;;;10459941;28;20063;-58
2021/03/23 12:37:20;;;;;;;10.57;5.93;;;17.60;57.10;;;;;;10470614;28;20389;-58
2021/03/23 12:42:25;;;;;;;8.80;5.93;;;17.50;58.70;;;;;;10455982;28;20037;-57
2021/03/23 12:47:26;;;;;;;9.90;5.90;;;17.50;58.30;;;;;;10451695;28;20204;-58
2021/03/23 12:52:27;;;;;;;10.32;5.95;;;17.60;58.00;;;;;;10484367;28;20407;-58
2021/03/23 12:57:31;;;;;;;9.30;6.18;;;17.60;57.70;;;;;;10455158;28;20139;-58
2021/03/23 13:02:32;;;;;;;8.88;6.55;;;17.50;57.60;;;;;;10454467;28;20033;-58
2021/03/23 13:07:39;;;;;;;8.07;5.95;;;17.60;57.60;;;;;;10451626;28;20474;-59
2021/03/23 13:12:39;;;;;;;10.48;6.38;;;17.60;57.50;;;;;;10472465;28;20029;-58
2021/03/23 13:17:40;;;;;;;11.77;6.80;;;17.50;57.90;;;;;;10483198;28;20456;-59
2021/03/23 13:23:02;;;;;;;16.73;6.82;;;17.50;59.20;;;;;;10471880;28;20083;-58
2021/03/23 13:28:23;;;;;;;11.90;7.32;;;17.60;59.70;;;;;;10463766;28;20028;-57
2021/03/23 13:33:24;;;;;;;10.35;6.43;;;17.60;59.20;;;;;;10468249;28;20029;-59
2021/03/23 13:38:29;;;;;;;11.95;6.97;;;17.60;59.20;;;;;;10471031;28;20032;-57
2021/03/23 13:43:29;;;;;;;11.88;6.30;;;17.60;59.50;;;;;;10468179;28;20041;-56
2021/03/23 13:48:31;;;;;;;13.82;7.40;;;17.60;59.00;;;;;;10470191;28;20088;-57
2021/03/23 13:53:39;;;;;;;12.43;6.22;;;17.60;58.90;;;;;;10462717;28;20053;-58
2021/03/23 13:58:42;;;;;;;13.20;7.55;;;17.50;58.90;;;;;;10486873;28;20131;-58
2021/03/23 14:03:43;;;;;;;13.23;7.47;;;17.50;58.70;;;;;;10470586;28;20028;-58
2021/03/23 14:08:43;;;;;;;12.50;8.52;;;17.50;58.50;;;;;;10452803;28;20028;-58
2021/03/23 14:13:45;;;;;;;11.32;6.90;;;17.50;58.40;;;;;;10476002;28;20101;-58
2021/03/23 14:18:46;;;;;;;8.95;6.22;;;17.50;58.30;;;;;;10478511;28;20036;-58
2021/03/23 14:23:49;;;;;;;12.35;6.75;;;17.50;58.10;;;;;;10459297;28;20084;-57
2021/03/23 14:28:52;;;;;;;10.38;7.15;;;17.50;58.10;;;;;;10448500;28;20033;-58
2021/03/23 14:33:53;;;;;;;12.35;7.45;;;17.50;58.00;;;;;;10463998;28;20037;-58
2021/03/23 14:39:22;;;;;;;11.65;6.70;;;17.50;57.90;;;;;;10477519;28;20048;-58
2021/03/23 14:44:22;;;;;;;9.85;6.38;;;17.50;57.90;;;;;;10477236;28;20453;-58
2021/03/23 14:49:23;;;;;;;9.25;5.78;;;17.50;57.80;;;;;;10466319;28;20037;-58
2021/03/23 14:54:25;;;;;;;9.70;6.25;;;17.50;57.80;;;;;;10449893;28;20086;-58
2021/03/23 14:59:25;;;;;;;12.98;7.75;;;17.50;57.90;;;;;;10448657;28;20044;-58
2021/03/23 15:04:27;;;;;;;19.27;8.07;;;17.50;57.90;;;;;;10450196;28;20489;-56
2021/03/23 15:09:30;;;;;;;16.10;7.07;;;17.50;57.80;;;;;;10468570;28;20115;-58
2021/03/23 15:14:31;;;;;;;14.82;7.65;;;17.50;57.80;;;;;;10464212;28;20029;-59
2021/03/23 15:19:33;;;;;;;12.50;7.85;;;17.60;58.00;;;;;;10461446;28;20033;-59
2021/03/23 15:24:34;;;;;;;9.07;7.07;;;17.60;58.40;;;;;;10465288;28;20033;-59
2021/03/23 15:29:34;;;;;;;14.48;7.43;;;17.60;58.60;;;;;;10462656;28;20497;-59
2021/03/23 15:34:36;;;;;;;10.68;6.60;;;17.60;58.30;;;;;;10447387;28;20027;-57
2021/03/23 15:39:38;;;;;;;9.48;6.20;;;17.60;58.60;;;;;;10447169;28;20065;-58
2021/03/23 15:44:39;;;;;;;11.57;7.18;;;17.60;58.30;;;;;;10447255;28;20033;-57
2021/03/23 15:49:40;;;;;;;11.07;8.05;;;17.60;57.90;;;;;;10453213;28;20041;-56
2021/03/23 15:54:41;;;;;;;11.90;7.95;;;17.60;57.60;;;;;;10444877;28;20033;-58
2021/03/23 15:59:42;;;;;;;14.32;8.88;;;17.60;56.80;;;;;;10444468;28;20485;-59
2021/03/23 16:04:43;;;;;;;14.95;8.70;;;17.60;57.90;;;;;;10443932;28;20082;-58
2021/03/23 16:09:43;;;;;;;14.95;7.75;;;17.70;56.90;;;;;;10444708;28;20029;-58
2021/03/23 16:14:44;;;;;;;15.38;7.68;;;17.70;57.00;;;;;;10450827;28;20116;-58
2021/03/23 16:19:45;;;;;;;14.15;7.20;;;17.70;57.00;;;;;;10453670;28;20060;-58
2021/03/23 16:24:46;;;;;;;10.50;6.65;;;17.70;56.90;;;;;;10452843;28;20125;-57
2021/03/23 16:29:46;;;;;;;11.50;7.50;;;17.70;56.90;;;;;;10452790;28;20048;-57
2021/03/23 16:34:48;;;;;;;12.77;7.25;;;17.70;56.80;;;;;;10471413;28;20408;-56
2021/03/23 16:39:50;;;;;;;10.73;6.90;;;17.70;56.90;;;;;;10458957;28;20095;-57
2021/03/23 16:44:52;;;;;;;10.73;6.80;;;17.60;56.80;;;;;;10479982;28;20028;-57
2021/03/23 16:49:53;;;;;;;8.63;5.90;;;17.60;56.90;;;;;;10459793;28;20075;-56
2021/03/23 16:54:56;;;;;;;8.82;6.15;;;17.70;57.00;;;;;;10482787;28;20052;-57
2021/03/23 16:59:56;;;;;;;8.55;6.68;;;17.70;56.90;;;;;;10493829;28;20432;-57
2021/03/23 17:04:57;;;;;;;7.70;5.93;;;17.70;56.90;;;;;;10459065;28;20025;-57
2021/03/23 17:09:57;;;;;;;8.18;6.07;;;17.70;56.90;;;;;;10471792;28;20115;-57
2021/03/23 17:14:58;;;;;;;8.90;5.47;;;17.70;56.80;;;;;;10460149;28;20021;-57
2021/03/23 17:19:59;;;;;;;8.35;4.95;;;17.70;56.80;;;;;;10459097;28;20413;-57
2021/03/23 17:25:00;;;;;;;9.55;5.85;;;17.70;56.90;;;;;;10477170;28;20409;-57
2021/03/23 17:30:01;;;;;;;10.20;6.43;;;17.70;56.80;;;;;;10493413;28;20032;-57
2021/03/23 17:35:03;;;;;;;14.68;6.47;;;17.70;56.80;;;;;;10474862;28;20033;-60
2021/03/23 17:40:07;;;;;;;15.30;6.57;;;17.70;59.50;;;;;;10458868;28;20118;-58
2021/03/23 17:45:18;;;;;;;15.40;6.50;;;17.70;60.00;;;;;;10489989;28;20640;-59
2021/03/23 17:50:20;;;;;;;15.73;6.40;;;17.70;60.30;;;;;;10458018;28;20037;-57
2021/03/23 17:55:24;;;;;;;16.92;6.20;;;17.70;59.70;;;;;;10497952;28;20033;-58
2021/03/23 18:00:29;;;;;;;16.08;6.65;;;17.70;59.10;;;;;;10472005;28;20492;-58
2021/03/23 18:05:33;;;;;;;13.23;9.23;;;17.70;59.20;;;;;;10457172;28;20025;-57
2021/03/23 18:10:34;;;;;;;10.65;7.03;;;17.70;62.60;;;;;;10457225;28;20039;-57
2021/03/23 18:15:35;;;;;;;16.42;9.00;;;17.60;60.60;;;;;;10457207;28;20049;-57
2021/03/23 18:20:36;;;;;;;12.18;8.45;;;17.60;60.90;;;;;;10457792;28;20052;-59
2021/03/23 18:25:37;;;;;;;10.98;7.10;;;17.70;61.60;;;;;;10455634;28;20028;-59
2021/03/23 18:30:39;;;;;;;12.75;7.25;;;17.70;61.20;;;;;;10455355;28;20036;-58
2021/03/23 18:35:42;;;;;;;13.82;8.65;;;17.60;60.30;;;;;;10452688;28;20029;-58
2021/03/23 18:40:43;;;;;;;11.90;8.75;;;17.60;59.70;;;;;;10461892;28;20025;-59
2021/03/23 18:45:45;;;;;;;14.68;8.82;;;17.60;58.50;;;;;;10476014;28;20468;-58
2021/03/23 18:50:46;;;;;;;12.40;8.70;;;17.70;57.70;;;;;;10459382;28;20398;-59
2021/03/23 18:55:46;;;;;;;15.05;10.07;;;17.70;57.10;;;;;;10461170;28;20042;-59
2021/03/23 19:00:50;;;;;;;12.52;8.50;;;17.80;56.70;;;;;;10451885;28;20108;-58
2021/03/23 19:05:50;;;;;;;14.40;9.57;;;17.80;56.20;;;;;;10448771;28;20139;-58
2021/03/23 19:10:52;;;;;;;19.35;9.32;;;17.90;55.90;;;;;;10448758;28;20028;-59
2021/03/23 19:15:55;;;;;;;13.90;8.50;;;18.00;56.00;;;;;;10456667;28;20036;-59
2021/03/23 19:20:56;;;;;;;11.77;7.68;;;18.00;55.40;;;;;;10451285;28;20041;-59
2021/03/23 19:25:59;;;;;;;15.18;7.70;;;18.10;56.40;;;;;;10467486;28;20048;-60
2021/03/23 19:31:10;;;;;;;11.60;7.10;;;18.10;56.70;;;;;;10453074;28;20029;-60
2021/03/23 19:36:12;;;;;;;12.57;7.35;;;18.10;56.80;;;;;;10450923;28;20041;-60
2021/03/23 19:41:12;;;;;;;9.93;6.57;;;18.10;57.40;;;;;;10451753;28;20029;-59
2021/03/23 19:46:15;;;;;;;11.30;6.45;;;18.10;57.40;;;;;;10456155;28;20065;-59
2021/03/23 19:51:21;;;;;;;10.65;6.05;;;18.10;57.40;;;;;;10460735;28;20016;-60
2021/03/23 19:56:23;;;;;;;10.10;5.95;;;18.10;57.60;;;;;;10463044;28;20384;-59
2021/03/23 20:01:24;;;;;;;7.45;5.68;;;18.00;57.70;;;;;;10450889;28;20063;-60
2021/03/23 20:06:24;;;;;;;8.63;6.13;;;17.90;58.20;;;;;;10462036;28;20025;-59
2021/03/23 20:11:26;;;;;;;9.73;6.70;;;17.90;58.10;;;;;;10474771;28;20021;-58
2021/03/23 20:16:27;;;;;;;11.90;6.15;;;17.80;58.30;;;;;;10459906;28;20413;-59
2021/03/23 20:21:30;;;;;;;16.13;6.82;;;17.80;58.40;;;;;;10460789;28;20076;-59
2021/03/23 20:26:32;;;;;;;9.30;5.82;;;17.80;58.50;;;;;;10460978;28;20075;-59
2021/03/23 20:31:34;;;;;;;8.02;5.80;;;17.80;58.60;;;;;;10462951;28;20037;-59
2021/03/23 20:36:35;;;;;;;6.05;5.13;;;17.70;58.60;;;;;;10458635;28;20025;-58
2021/03/23 20:41:38;;;;;;;8.57;5.95;;;17.70;58.80;;;;;;10458664;28;20033;-59
2021/03/23 20:46:39;;;;;;;7.50;5.40;;;17.60;58.70;;;;;;10456648;28;20033;-58
2021/03/23 20:51:40;;;;;;;6.15;4.70;;;17.70;58.90;;;;;;10450507;28;20021;-58
2021/03/23 20:56:41;;;;;;;7.63;5.70;;;17.70;58.90;;;;;;10455763;28;20108;-58
2021/03/23 21:01:42;;;;;;;8.05;5.25;;;17.70;59.00;;;;;;10460245;28;20033;-59
2021/03/23 21:06:42;;;;;;;8.32;5.03;;;17.70;58.90;;;;;;10486928;28;20048;-60
2021/03/23 21:11:43;;;;;;;7.35;4.55;;;17.70;58.90;;;;;;10485246;28;20445;-60
2021/03/23 21:16:44;;;;;;;6.93;5.40;;;17.70;58.90;;;;;;10488737;28;20103;-60
2021/03/23 21:21:48;;;;;;;8.02;5.25;;;17.70;58.80;;;;;;10478407;28;20140;-59
2021/03/23 21:26:49;;;;;;;6.63;5.07;;;17.70;58.60;;;;;;10455718;28;20029;-59
2021/03/23 21:31:51;;;;;;;5.65;4.15;;;17.70;58.60;;;;;;10479800;28;20063;-60
2021/03/23 21:36:52;;;;;;;5.53;4.07;;;17.70;58.40;;;;;;10484999;28;20060;-60
2021/03/23 21:41:53;;;;;;;5.38;4.55;;;17.70;58.20;;;;;;10482069;28;20029;-59
2021/03/23 21:46:53;;;;;;;4.82;4.32;;;17.70;58.10;;;;;;10457931;28;20029;-59
2021/03/23 21:51:54;;;;;;;7.22;4.95;;;17.70;58.00;;;;;;10470306;28;20361;-59
2021/03/23 21:56:55;;;;;;;5.80;4.80;;;17.70;57.80;;;;;;10499714;28;20441;-59
2021/03/23 22:01:58;;;;;;;5.15;4.43;;;17.70;57.60;;;;;;10489521;28;20076;-60
2021/03/23 22:06:59;;;;;;;6.82;4.57;;;17.70;57.60;;;;;;10456332;28;20025;-60
2021/03/23 22:12:00;;;;;;;4.88;4.35;;;17.70;57.50;;;;;;10482799;28;20288;-59
2021/03/23 22:17:00;;;;;;;5.53;4.50;;;17.70;57.40;;;;;;10495863;28;20029;-60
2021/03/23 22:22:01;;;;;;;7.97;5.30;;;17.70;57.30;;;;;;10474322;28;20374;-59
2021/03/23 22:27:02;;;;;;;6.10;4.10;;;17.70;57.20;;;;;;10456779;28;20037;-59
2021/03/23 22:32:04;;;;;;;6.22;4.22;;;17.70;57.20;;;;;;10456403;28;20033;-60
2021/03/23 22:37:05;;;;;;;5.55;4.45;;;17.70;57.10;;;;;;10456133;28;20072;-59
2021/03/23 22:42:06;;;;;;;5.15;4.65;;;17.70;57.00;;;;;;10468689;28;20031;-59
2021/03/23 22:47:07;;;;;;;8.60;4.60;;;17.70;56.90;;;;;;10497375;28;20500;-59
2021/03/23 22:52:08;;;;;;;6.05;4.78;;;17.70;56.90;;;;;;10472389;28;20029;-58
2021/03/23 22:57:09;;;;;;;5.38;4.55;;;17.70;56.80;;;;;;10455618;28;20535;-59
2021/03/23 23:02:09;;;;;;;5.50;4.72;;;17.70;56.70;;;;;;10455495;28;20028;-59
2021/03/23 23:07:11;;;;;;;8.45;4.28;;;17.70;56.60;;;;;;10455490;28;20430;-59
2021/03/23 23:12:11;;;;;;;5.85;4.15;;;17.70;56.60;;;;;;10469296;28;20025;-60
2021/03/23 23:17:12;;;;;;;7.13;4.32;;;17.70;56.50;;;;;;10463440;28;20033;-60
2021/03/23 23:22:13;;;;;;;4.60;3.88;;;17.70;56.40;;;;;;10497565;28;20110;-60
2021/03/23 23:27:17;;;;;;;5.15;4.30;;;17.70;56.40;;;;;;10463634;28;20112;-60
2021/03/23 23:32:18;;;;;;;5.63;3.88;;;17.70;56.30;;;;;;10463558;28;20079;-60
2021/03/23 23:37:22;;;;;;;6.50;4.90;;;17.70;56.20;;;;;;10481941;28;20028;-59
2021/03/23 23:42:22;;;;;;;7.13;4.82;;;17.70;56.10;;;;;;10462675;28;20036;-59
2021/03/23 23:47:23;;;;;;;6.20;4.90;;;17.80;56.20;;;;;;10498582;28;20040;-59
2021/03/23 23:52:23;;;;;;;4.60;4.10;;;17.70;56.00;;;;;;10499351;28;20451;-59
2021/03/23 23:57:24;;;;;;;6.85;4.68;;;17.70;56.60;;;;;;10462782;28;20028;-59
